createdAt,value
2019-01-21T00:00:01.238Z,19.50
2019-01-21T00:01:01.265Z,20.20
2019-01-21T00:02:01.221Z,19.50
2019-01-21T00:03:01.219Z,20.00
2019-01-21T00:04:01.194Z,20.30
2019-01-21T00:05:01.184Z,19.70
2019-01-21T00:06:01.195Z,19.00
2019-01-21T00:07:01.165Z,19.00
2019-01-21T00:08:01.181Z,19.00
2019-01-21T00:09:01.151Z,19.30
2019-01-21T00:10:01.129Z,18.70
2019-01-21T00:11:01.116Z,19.60
2019-01-21T00:12:01.107Z,18.80
2019-01-21T00:13:01.124Z,18.90
2019-01-21T00:14:01.087Z,19.70
2019-01-21T00:15:01.087Z,19.70
2019-01-21T00:16:01.060Z,18.70
2019-01-21T00:17:01.049Z,18.40
2019-01-21T00:18:01.074Z,18.30
2019-01-21T00:19:01.028Z,18.40
2019-01-21T00:20:01.019Z,19.00
2019-01-21T00:21:01.010Z,18.30
2019-01-21T00:22:00.994Z,19.20
2019-01-21T00:23:02.457Z,18.70
2019-01-21T00:24:00.975Z,18.00
2019-01-21T00:25:00.988Z,18.40
2019-01-21T00:26:00.955Z,19.20
2019-01-21T00:27:00.959Z,19.20
2019-01-21T00:28:00.956Z,18.80
2019-01-21T00:29:00.920Z,19.20
2019-01-21T00:30:00.911Z,19.70
2019-01-21T00:31:00.903Z,18.80
2019-01-21T00:32:00.887Z,17.60
2019-01-21T00:33:00.911Z,18.50
2019-01-21T00:34:00.874Z,18.40
2019-01-21T00:35:00.857Z,19.50
2019-01-21T00:36:00.844Z,18.20
2019-01-21T00:37:03.549Z,17.30
2019-01-21T00:38:00.850Z,17.50
2019-01-21T00:39:00.813Z,17.90
2019-01-21T00:40:00.841Z,18.10
2019-01-21T00:41:00.797Z,17.50
2019-01-21T00:42:00.779Z,18.30
2019-01-21T00:43:00.771Z,18.30
2019-01-21T00:44:00.762Z,18.50
2019-01-21T00:45:00.783Z,17.60
2019-01-21T00:46:00.738Z,17.90
2019-01-21T00:47:00.735Z,18.40
2019-01-21T00:48:00.716Z,18.90
2019-01-21T00:49:00.702Z,19.40
2019-01-21T00:50:00.727Z,26.30
2019-01-21T00:51:00.679Z,24.60
2019-01-21T00:52:00.671Z,25.00
2019-01-21T00:53:00.666Z,25.10
2019-01-21T00:54:00.647Z,24.00
2019-01-21T00:55:00.668Z,22.50
2019-01-21T00:56:00.630Z,29.20
2019-01-21T00:57:00.613Z,28.50
2019-01-21T00:58:00.603Z,23.90
2019-01-21T00:59:00.601Z,21.90
2019-01-21T01:00:00.607Z,20.40
2019-01-21T01:01:00.597Z,21.00
2019-01-21T01:02:00.565Z,20.50
2019-01-21T01:03:00.548Z,22.10
2019-01-21T01:04:00.537Z,21.50
2019-01-21T01:05:00.534Z,20.80
2019-01-21T01:06:00.540Z,21.10
2019-01-21T01:07:00.506Z,20.00
2019-01-21T01:08:00.493Z,19.80
2019-01-21T01:09:00.510Z,20.00
2019-01-21T01:10:00.493Z,19.90
2019-01-21T01:11:00.468Z,21.50
2019-01-21T01:12:00.483Z,21.00
2019-01-21T01:13:00.444Z,21.40
2019-01-21T01:14:00.426Z,21.90
2019-01-21T01:15:00.445Z,22.00
2019-01-21T01:16:00.405Z,21.00
2019-01-21T01:17:00.394Z,20.50
2019-01-21T01:18:00.383Z,20.40
2019-01-21T01:19:00.379Z,19.80
2019-01-21T01:20:00.401Z,20.30
2019-01-21T01:21:00.385Z,19.80
2019-01-21T01:22:00.338Z,19.40
2019-01-21T01:23:00.327Z,19.70
2019-01-21T01:24:00.321Z,19.80
2019-01-21T01:25:00.317Z,19.50
2019-01-21T01:26:00.319Z,19.10
2019-01-21T01:27:00.286Z,19.10
2019-01-21T01:28:00.276Z,18.70
2019-01-21T01:29:00.286Z,19.40
2019-01-21T01:30:00.253Z,18.90
2019-01-21T01:31:00.249Z,18.80
2019-01-21T01:32:00.228Z,18.50
2019-01-21T01:33:00.245Z,18.10
2019-01-21T01:34:00.208Z,18.00
2019-01-21T01:35:00.271Z,16.80
2019-01-21T01:36:00.188Z,16.30
2019-01-21T01:37:00.202Z,15.50
2019-01-21T01:38:00.189Z,16.20
2019-01-21T01:39:00.153Z,16.40
2019-01-21T01:40:00.230Z,15.90
2019-01-21T01:41:00.131Z,16.20
2019-01-21T01:42:00.118Z,15.70
2019-01-21T01:43:00.141Z,16.10
2019-01-21T01:44:00.097Z,16.00
2019-01-21T01:45:00.141Z,15.50
2019-01-21T01:46:00.078Z,16.00
2019-01-21T01:47:00.064Z,15.90
2019-01-21T01:48:00.091Z,15.70
2019-01-21T01:49:00.047Z,15.40
2019-01-21T01:50:00.031Z,15.20
2019-01-21T01:51:00.021Z,14.30
2019-01-21T01:52:00.011Z,14.40
2019-01-21T01:53:00.075Z,15.00
2019-01-21T01:53:59.986Z,15.00
2019-01-21T01:54:59.991Z,15.00
2019-01-21T01:55:59.965Z,14.60
2019-01-21T01:56:59.954Z,15.30
2019-01-21T01:57:59.989Z,15.30
2019-01-21T01:58:59.932Z,15.20
2019-01-21T01:59:59.926Z,14.80
2019-01-21T02:00:59.929Z,14.90
2019-01-21T02:01:59.902Z,14.70
2019-01-21T02:02:59.914Z,15.10
2019-01-21T02:03:59.878Z,14.90
2019-01-21T02:04:59.867Z,15.50
2019-01-21T02:05:59.857Z,15.20
2019-01-21T02:06:59.862Z,14.70
2019-01-21T02:07:59.854Z,14.90
2019-01-21T02:08:59.847Z,14.30
2019-01-21T02:09:59.813Z,14.60
2019-01-21T02:10:59.802Z,14.40
2019-01-21T02:11:59.791Z,14.90
2019-01-21T02:12:59.790Z,14.10
2019-01-21T02:13:59.796Z,14.80
2019-01-21T02:14:59.758Z,14.00
2019-01-21T02:15:59.747Z,14.60
2019-01-21T02:16:59.740Z,13.70
2019-01-21T02:17:59.724Z,14.10
2019-01-21T02:18:59.764Z,13.70
2019-01-21T02:19:59.712Z,13.90
2019-01-21T02:20:59.695Z,14.30
2019-01-21T02:21:59.681Z,14.40
2019-01-21T02:22:59.672Z,13.60
2019-01-21T02:23:59.695Z,14.00
2019-01-21T02:24:59.647Z,13.60
2019-01-21T02:25:59.644Z,14.10
2019-01-21T02:26:59.635Z,14.30
2019-01-21T02:27:59.620Z,14.30
2019-01-21T02:28:59.630Z,14.30
2019-01-21T02:29:59.637Z,14.10
2019-01-21T02:30:59.583Z,13.40
2019-01-21T02:31:59.573Z,14.20
2019-01-21T02:32:59.566Z,13.70
2019-01-21T02:33:59.554Z,13.70
2019-01-21T02:34:59.575Z,14.30
2019-01-21T02:35:59.530Z,14.10
2019-01-21T02:36:59.520Z,13.90
2019-01-21T02:37:59.519Z,13.10
2019-01-21T02:38:59.497Z,14.20
2019-01-21T02:39:59.516Z,13.60
2019-01-21T02:40:59.475Z,13.90
2019-01-21T02:41:59.490Z,14.20
2019-01-21T02:42:59.454Z,14.00
2019-01-21T02:43:59.460Z,13.00
2019-01-21T02:44:59.438Z,14.20
2019-01-21T02:45:59.453Z,13.70
2019-01-21T02:46:59.413Z,13.80
2019-01-21T02:48:00.316Z,14.30
2019-01-21T02:48:59.389Z,13.80
2019-01-21T02:49:59.388Z,14.00
2019-01-21T02:50:59.410Z,14.40
2019-01-21T02:51:59.356Z,15.00
2019-01-21T02:52:59.347Z,14.20
2019-01-21T02:53:59.333Z,14.50
2019-01-21T02:54:59.384Z,15.20
2019-01-21T02:55:59.357Z,14.70
2019-01-21T02:56:59.336Z,14.50
2019-01-21T02:57:59.291Z,14.10
2019-01-21T02:58:59.279Z,14.40
2019-01-21T02:59:59.267Z,15.30
2019-01-21T03:00:59.258Z,15.10
2019-01-21T03:01:59.284Z,14.50
2019-01-21T03:02:59.234Z,15.40
2019-01-21T03:03:59.225Z,16.10
2019-01-21T03:04:59.241Z,15.60
2019-01-21T03:05:59.212Z,16.30
2019-01-21T03:06:59.191Z,15.70
2019-01-21T03:07:59.222Z,15.70
2019-01-21T03:08:59.172Z,16.70
2019-01-21T03:09:59.160Z,16.00
2019-01-21T03:10:59.147Z,15.50
2019-01-21T03:11:59.163Z,15.60
2019-01-21T03:12:59.126Z,17.10
2019-01-21T03:13:59.128Z,16.60
2019-01-21T03:14:59.110Z,15.80
2019-01-21T03:15:59.092Z,16.10
2019-01-21T03:16:59.108Z,15.90
2019-01-21T03:17:59.074Z,16.30
2019-01-21T03:18:59.066Z,14.50
2019-01-21T03:19:59.064Z,15.20
2019-01-21T03:20:59.064Z,15.40
2019-01-21T03:21:59.032Z,14.60
2019-01-21T03:22:59.018Z,14.20
2019-01-21T03:23:59.032Z,14.70
2019-01-21T03:24:58.994Z,14.90
2019-01-21T03:25:58.998Z,14.90
2019-01-21T03:26:58.974Z,14.20
2019-01-21T03:27:58.964Z,14.10
2019-01-21T03:28:58.983Z,14.80
2019-01-21T03:29:58.939Z,14.80
2019-01-21T03:30:58.967Z,14.60
2019-01-21T03:31:58.947Z,14.70
2019-01-21T03:32:58.910Z,16.00
2019-01-21T03:33:58.903Z,15.40
2019-01-21T03:34:58.890Z,15.50
2019-01-21T03:35:58.902Z,15.40
2019-01-21T03:36:58.879Z,15.10
2019-01-21T03:37:58.858Z,16.10
2019-01-21T03:38:58.842Z,16.70
2019-01-21T03:39:58.833Z,16.30
2019-01-21T03:40:58.845Z,17.00
2019-01-21T03:41:58.808Z,16.60
2019-01-21T03:42:58.799Z,17.90
2019-01-21T03:43:58.799Z,17.00
2019-01-21T03:44:58.778Z,17.40
2019-01-21T03:45:58.796Z,18.10
2019-01-21T03:46:58.759Z,18.40
2019-01-21T03:47:58.747Z,18.80
2019-01-21T03:48:58.734Z,18.60
2019-01-21T03:49:58.734Z,18.40
2019-01-21T03:50:58.736Z,18.40
2019-01-21T03:51:58.706Z,17.90
2019-01-21T03:52:58.689Z,18.30
2019-01-21T03:53:58.702Z,17.30
2019-01-21T03:54:58.667Z,17.60
2019-01-21T03:55:58.669Z,17.70
2019-01-21T03:56:58.689Z,18.30
2019-01-21T03:57:58.650Z,17.90
2019-01-21T03:58:58.625Z,18.20
2019-01-21T03:59:58.610Z,18.60
2019-01-21T04:00:58.602Z,18.40
2019-01-21T04:01:58.626Z,19.00
2019-01-21T04:02:58.590Z,18.50
2019-01-21T04:03:58.568Z,18.30
2019-01-21T04:04:58.565Z,18.40
2019-01-21T04:05:58.547Z,18.30
2019-01-21T04:06:58.571Z,18.90
2019-01-21T04:07:58.528Z,18.70
2019-01-21T04:08:58.515Z,18.20
2019-01-21T04:09:58.504Z,18.40
2019-01-21T04:10:58.498Z,18.60
2019-01-21T04:11:58.511Z,17.80
2019-01-21T04:12:58.472Z,17.30
2019-01-21T04:13:58.459Z,18.10
2019-01-21T04:14:58.453Z,17.40
2019-01-21T04:15:58.437Z,17.40
2019-01-21T04:16:58.470Z,17.80
2019-01-21T04:17:58.427Z,17.10
2019-01-21T04:18:58.429Z,17.00
2019-01-21T04:19:58.436Z,16.90
2019-01-21T04:20:58.384Z,17.90
2019-01-21T04:21:58.394Z,16.40
2019-01-21T04:22:58.363Z,16.50
2019-01-21T04:26:21.503Z,18.40
2019-01-21T04:27:18.478Z,17.90
2019-01-21T04:28:18.468Z,17.00
2019-01-21T04:29:18.477Z,17.40
2019-01-21T04:30:18.445Z,16.80
2019-01-21T04:31:18.436Z,17.30
2019-01-21T04:32:18.431Z,17.00
2019-01-21T04:33:18.412Z,16.40
2019-01-21T04:34:18.420Z,15.60
2019-01-21T04:35:18.413Z,16.30
2019-01-21T04:36:18.416Z,16.30
2019-01-21T04:37:18.368Z,16.80
2019-01-21T04:38:18.364Z,16.90
2019-01-21T04:39:18.352Z,16.10
2019-01-21T04:40:18.357Z,16.10
2019-01-21T04:41:18.354Z,16.20
2019-01-21T04:42:18.337Z,15.80
2019-01-21T04:43:18.309Z,15.70
2019-01-21T04:44:18.298Z,15.90
2019-01-21T04:45:18.312Z,15.90
2019-01-21T04:46:19.202Z,16.50
2019-01-21T04:47:18.295Z,16.00
2019-01-21T04:48:18.266Z,17.00
2019-01-21T04:49:18.246Z,16.00
2019-01-21T04:50:18.235Z,16.20
2019-01-21T04:51:18.223Z,16.80
2019-01-21T04:52:18.232Z,16.40
2019-01-21T04:53:18.230Z,16.30
2019-01-21T04:54:18.198Z,17.00
2019-01-21T04:55:18.184Z,16.80
2019-01-21T04:56:18.173Z,16.70
2019-01-21T04:57:18.162Z,17.10
2019-01-21T04:58:18.173Z,18.40
2019-01-21T04:59:18.140Z,17.80
2019-01-21T05:00:18.139Z,18.10
2019-01-21T05:01:18.118Z,19.10
2019-01-21T05:02:18.114Z,19.40
2019-01-21T05:03:18.127Z,18.50
2019-01-21T05:04:18.086Z,18.20
2019-01-21T05:05:18.075Z,18.80
2019-01-21T05:06:18.081Z,17.60
2019-01-21T05:07:18.054Z,18.00
2019-01-21T05:08:18.064Z,17.20
2019-01-21T05:09:18.035Z,16.50
2019-01-21T05:10:18.031Z,17.80
2019-01-21T05:11:18.035Z,18.00
2019-01-21T05:12:18.015Z,17.90
2019-01-21T05:13:17.999Z,17.60
2019-01-21T05:14:17.982Z,18.90
2019-01-21T05:15:18.011Z,17.50
2019-01-21T05:16:17.964Z,16.90
2019-01-21T05:17:17.952Z,17.70
2019-01-21T05:18:17.939Z,17.70
2019-01-21T05:19:17.939Z,16.90
2019-01-21T05:20:17.937Z,17.10
2019-01-21T05:21:17.908Z,17.80
2019-01-21T05:22:17.919Z,18.60
2019-01-21T05:23:17.889Z,17.80
2019-01-21T05:24:17.880Z,18.20
2019-01-21T05:25:17.874Z,18.10
2019-01-21T05:26:17.879Z,17.80
2019-01-21T05:27:17.850Z,19.40
2019-01-21T05:28:17.836Z,18.50
2019-01-21T05:29:17.856Z,18.20
2019-01-21T05:30:17.818Z,18.60
2019-01-21T05:31:17.816Z,19.60
2019-01-21T05:32:17.792Z,19.40
2019-01-21T05:33:17.783Z,19.60
2019-01-21T05:34:17.797Z,18.70
2019-01-21T05:35:17.762Z,19.40
2019-01-21T05:36:17.750Z,18.70
2019-01-21T05:37:17.748Z,18.80
2019-01-21T05:38:17.735Z,19.50
2019-01-21T05:39:17.764Z,20.00
2019-01-21T05:40:17.720Z,20.00
2019-01-21T05:41:17.712Z,19.00
2019-01-21T05:42:17.692Z,19.70
2019-01-21T05:43:17.693Z,20.40
2019-01-21T05:44:17.702Z,20.90
2019-01-21T05:45:17.662Z,20.40
2019-01-21T05:46:17.649Z,20.80
2019-01-21T05:47:17.636Z,20.20
2019-01-21T05:48:17.653Z,21.70
2019-01-21T05:49:17.623Z,19.90
2019-01-21T05:50:17.607Z,20.40
2019-01-21T05:51:17.595Z,21.00
2019-01-21T05:52:17.589Z,20.60
2019-01-21T05:53:17.619Z,21.10
2019-01-21T05:54:17.564Z,20.40
2019-01-21T05:55:17.561Z,21.90
2019-01-21T05:56:17.546Z,21.50
2019-01-21T05:57:17.552Z,21.70
2019-01-21T05:58:17.522Z,21.00
2019-01-21T05:59:17.512Z,22.20
2019-01-21T06:00:17.502Z,21.60
2019-01-21T06:01:17.523Z,21.40
2019-01-21T06:02:17.480Z,22.10
2019-01-21T06:03:18.457Z,21.60
2019-01-21T06:04:18.458Z,22.10
2019-01-21T06:05:17.455Z,21.60
2019-01-21T06:06:19.961Z,21.10
2019-01-21T06:07:18.456Z,22.10
2019-01-21T06:08:17.417Z,21.70
2019-01-21T06:09:17.406Z,20.90
2019-01-21T06:10:17.396Z,21.90
2019-01-21T06:11:17.387Z,22.00
2019-01-21T06:12:17.404Z,21.40
2019-01-21T06:13:17.375Z,22.20
2019-01-21T06:14:17.354Z,22.90
2019-01-21T06:15:17.373Z,23.00
2019-01-21T06:16:17.334Z,22.40
2019-01-21T06:18:57.338Z,22.40
2019-01-21T06:19:35.221Z,21.50
2019-01-21T06:20:35.212Z,22.10
2019-01-21T06:21:35.205Z,22.70
2019-01-21T06:22:35.229Z,23.10
2019-01-21T06:23:35.182Z,23.00
2019-01-21T06:24:35.177Z,22.80
2019-01-21T06:25:36.581Z,22.80
2019-01-21T06:26:35.149Z,22.50
2019-01-21T06:27:35.137Z,22.50
2019-01-21T06:28:35.129Z,21.60
2019-01-21T06:29:35.119Z,22.30
2019-01-21T06:30:35.147Z,22.80
2019-01-21T06:31:35.102Z,21.80
2019-01-21T06:32:35.086Z,21.20
2019-01-21T06:33:35.099Z,22.00
2019-01-21T06:34:35.062Z,22.80
2019-01-21T06:35:35.052Z,22.80
2019-01-21T06:36:35.080Z,22.50
2019-01-21T06:37:41.783Z,21.80
2019-01-21T06:38:35.065Z,21.30
2019-01-21T06:39:35.012Z,21.30
2019-01-21T06:40:34.999Z,21.80
2019-01-21T06:41:35.004Z,21.50
2019-01-21T06:42:34.986Z,21.90
2019-01-21T06:43:34.977Z,21.40
2019-01-21T06:44:34.966Z,21.10
2019-01-21T06:45:34.961Z,21.60
2019-01-21T06:46:34.974Z,21.40
2019-01-21T06:47:34.960Z,21.90
2019-01-21T06:48:34.917Z,21.90
2019-01-21T06:49:34.905Z,22.00
2019-01-21T06:50:34.893Z,22.00
2019-01-21T06:51:34.899Z,21.90
2019-01-21T06:52:34.904Z,21.90
2019-01-21T06:53:34.865Z,22.30
2019-01-21T06:54:34.858Z,22.10
2019-01-21T06:55:34.902Z,22.00
2019-01-21T06:56:34.834Z,22.80
2019-01-21T06:57:34.852Z,23.50
2019-01-21T06:58:34.810Z,23.80
2019-01-21T06:59:34.829Z,23.90
2019-01-21T07:00:34.794Z,23.40
2019-01-21T07:01:34.781Z,23.40
2019-01-21T07:02:35.234Z,24.20
2019-01-21T07:03:34.775Z,23.50
2019-01-21T07:04:34.773Z,23.60
2019-01-21T07:05:34.735Z,23.20
2019-01-21T07:06:34.725Z,23.70
2019-01-21T07:07:34.713Z,23.60
2019-01-21T07:08:34.783Z,24.20
2019-01-21T07:09:34.708Z,24.10
2019-01-21T07:10:34.680Z,24.40
2019-01-21T07:11:34.695Z,23.70
2019-01-21T07:12:34.663Z,24.20
2019-01-21T07:13:34.684Z,23.20
2019-01-21T07:14:34.641Z,23.50
2019-01-21T07:15:34.647Z,24.20
2019-01-21T07:16:41.517Z,25.30
2019-01-21T07:17:34.676Z,24.40
2019-01-21T07:18:34.622Z,23.30
2019-01-21T07:19:34.587Z,24.80
2019-01-21T07:20:34.576Z,23.50
2019-01-21T07:21:34.579Z,23.40
2019-01-21T07:22:34.557Z,23.90
2019-01-21T07:23:34.571Z,22.30
2019-01-21T07:24:34.533Z,23.00
2019-01-21T07:25:34.523Z,23.20
2019-01-21T07:26:34.513Z,21.90
2019-01-21T07:27:34.543Z,22.30
2019-01-21T07:28:34.492Z,22.10
2019-01-21T07:29:34.482Z,22.40
2019-01-21T07:30:34.500Z,23.10
2019-01-21T07:31:34.493Z,22.50
2019-01-21T07:32:34.475Z,22.70
2019-01-21T07:33:34.449Z,23.90
2019-01-21T07:34:34.439Z,23.00
2019-01-21T07:35:34.417Z,23.40
2019-01-21T07:36:34.406Z,24.40
2019-01-21T07:37:34.419Z,25.40
2019-01-21T07:38:34.386Z,24.20
2019-01-21T07:39:34.385Z,23.90
2019-01-21T07:40:34.369Z,24.10
2019-01-21T07:41:34.356Z,24.50
2019-01-21T07:42:34.427Z,24.50
2019-01-21T07:43:34.361Z,25.40
2019-01-21T07:44:34.425Z,25.00
2019-01-21T07:45:34.351Z,24.70
2019-01-21T07:46:34.332Z,24.60
2019-01-21T07:47:34.331Z,23.70
2019-01-21T07:48:34.386Z,24.00
2019-01-21T07:49:34.360Z,25.40
2019-01-21T07:50:34.292Z,23.70
2019-01-21T07:51:34.281Z,24.30
2019-01-21T07:52:34.278Z,24.10
2019-01-21T07:53:34.323Z,24.60
2019-01-21T07:54:34.242Z,24.50
2019-01-21T07:55:34.230Z,24.80
2019-01-21T07:56:34.201Z,24.90
2019-01-21T07:57:34.208Z,24.20
2019-01-21T07:58:34.178Z,24.40
2019-01-21T07:59:34.164Z,24.60
2019-01-21T08:00:34.152Z,25.10
2019-01-21T08:01:34.141Z,24.50
2019-01-21T08:02:34.173Z,22.80
2019-01-21T08:03:34.121Z,23.90
2019-01-21T08:04:34.109Z,24.00
2019-01-21T08:05:34.103Z,24.20
2019-01-21T08:06:34.089Z,23.50
2019-01-21T08:07:34.102Z,24.00
2019-01-21T08:08:34.083Z,25.00
2019-01-21T08:09:34.056Z,24.50
2019-01-21T08:10:34.045Z,24.50
2019-01-21T08:11:34.037Z,24.00
2019-01-21T08:12:34.097Z,24.60
2019-01-21T08:13:34.021Z,24.50
2019-01-21T08:14:34.014Z,25.00
2019-01-21T08:15:34.000Z,27.00
2019-01-21T08:16:33.981Z,27.40
2019-01-21T08:17:34.000Z,26.40
2019-01-21T08:18:33.989Z,26.70
2019-01-21T08:19:33.951Z,26.90
2019-01-21T08:20:33.944Z,26.00
2019-01-21T08:21:33.936Z,27.30
2019-01-21T08:22:34.165Z,25.40
2019-01-21T08:23:33.907Z,26.30
2019-01-21T08:24:33.895Z,25.70
2019-01-21T08:25:33.887Z,26.30
2019-01-21T08:26:33.873Z,26.60
2019-01-21T08:27:33.892Z,26.70
2019-01-21T08:28:33.907Z,26.80
2019-01-21T08:29:33.865Z,27.20
2019-01-21T08:30:33.833Z,26.00
2019-01-21T08:31:33.821Z,26.30
2019-01-21T08:32:33.865Z,25.30
2019-01-21T08:33:33.879Z,26.70
2019-01-21T08:34:33.800Z,26.40
2019-01-21T08:35:33.778Z,26.30
2019-01-21T08:36:33.768Z,26.60
2019-01-21T08:37:33.754Z,25.50
2019-01-21T08:38:33.783Z,25.70
2019-01-21T08:39:33.752Z,25.30
2019-01-21T08:40:33.727Z,25.70
2019-01-21T08:41:33.718Z,26.80
2019-01-21T08:42:33.713Z,27.10
2019-01-21T08:43:33.785Z,27.90
2019-01-21T08:44:33.686Z,27.10
2019-01-21T08:45:33.671Z,27.70
2019-01-21T08:46:33.661Z,27.70
2019-01-21T08:47:33.655Z,27.50
2019-01-21T08:48:33.668Z,26.60
2019-01-21T08:49:33.625Z,26.40
2019-01-21T08:50:33.613Z,28.40
2019-01-21T08:51:33.607Z,26.60
2019-01-21T08:52:33.594Z,26.50
2019-01-21T08:53:33.611Z,26.10
2019-01-21T08:54:33.570Z,26.10
2019-01-21T08:55:33.564Z,25.80
2019-01-21T08:56:41.309Z,25.70
2019-01-21T08:57:33.544Z,25.60
2019-01-21T08:58:33.586Z,26.00
2019-01-21T08:59:33.514Z,26.30
2019-01-21T09:00:33.507Z,26.50
2019-01-21T09:01:33.493Z,24.70
2019-01-21T09:02:33.483Z,26.40
2019-01-21T09:03:33.497Z,25.70
2019-01-21T09:04:33.503Z,27.10
2019-01-21T09:05:33.449Z,26.10
2019-01-21T09:06:33.439Z,25.50
2019-01-21T09:07:33.457Z,26.10
2019-01-21T09:08:37.593Z,26.90
2019-01-21T09:09:33.416Z,27.70
2019-01-21T09:10:33.404Z,26.10
2019-01-21T09:11:33.383Z,28.60
2019-01-21T09:12:33.396Z,28.20
2019-01-21T09:13:33.362Z,30.70
2019-01-21T09:14:33.376Z,31.70
2019-01-21T09:15:33.341Z,34.20
2019-01-21T09:16:33.344Z,34.90
2019-01-21T09:17:33.317Z,31.50
2019-01-21T09:18:33.333Z,30.90
2019-01-21T09:19:37.232Z,27.70
2019-01-21T09:20:33.288Z,28.10
2019-01-21T09:21:33.278Z,28.60
2019-01-21T09:22:33.269Z,30.30
2019-01-21T09:23:33.290Z,28.90
2019-01-21T09:24:33.242Z,28.10
2019-01-21T09:25:33.268Z,27.90
2019-01-21T09:26:33.233Z,27.80
2019-01-21T09:27:33.211Z,27.30
2019-01-21T09:28:33.224Z,27.00
2019-01-21T09:29:33.194Z,27.00
2019-01-21T09:30:33.179Z,26.70
2019-01-21T09:31:33.176Z,26.50
2019-01-21T09:32:33.180Z,26.60
2019-01-21T09:33:33.145Z,26.20
2019-01-21T09:34:33.162Z,26.70
2019-01-21T09:35:33.122Z,26.30
2019-01-21T09:36:33.122Z,26.10
2019-01-21T09:37:33.106Z,24.30
2019-01-21T09:38:33.097Z,25.30
2019-01-21T09:39:33.117Z,24.60
2019-01-21T09:40:33.064Z,24.70
2019-01-21T09:41:33.058Z,26.30
2019-01-21T09:42:33.050Z,25.20
2019-01-21T09:43:33.041Z,25.70
2019-01-21T09:44:33.049Z,25.80
2019-01-21T09:45:33.369Z,26.20
2019-01-21T09:46:33.001Z,25.50
2019-01-21T09:47:32.995Z,25.60
2019-01-21T09:48:33.001Z,26.20
2019-01-21T09:49:32.966Z,27.30
2019-01-21T09:50:32.967Z,26.80
2019-01-21T09:51:32.975Z,26.10
2019-01-21T09:52:32.933Z,25.60
2019-01-21T09:53:32.926Z,26.10
2019-01-21T09:54:32.916Z,27.50
2019-01-21T09:55:32.900Z,26.10
2019-01-21T09:56:32.959Z,26.20
2019-01-21T09:57:33.471Z,27.60
2019-01-21T09:58:32.878Z,25.30
2019-01-21T09:59:32.896Z,25.60
2019-01-21T10:00:32.849Z,26.00
2019-01-21T10:01:32.849Z,26.90
2019-01-21T10:02:32.824Z,25.90
2019-01-21T10:03:32.822Z,27.40
2019-01-21T10:04:32.826Z,28.70
2019-01-21T10:05:32.799Z,26.50
2019-01-21T10:06:32.781Z,28.40
2019-01-21T10:07:32.777Z,28.20
2019-01-21T10:08:32.774Z,27.70
2019-01-21T10:09:32.784Z,28.40
2019-01-21T10:10:32.743Z,28.00
2019-01-21T10:11:32.737Z,27.80
2019-01-21T10:12:32.908Z,27.80
2019-01-21T10:13:32.715Z,26.60
2019-01-21T10:14:32.719Z,26.80
2019-01-21T10:15:32.687Z,28.00
2019-01-21T10:16:32.674Z,27.10
2019-01-21T10:17:32.675Z,25.50
2019-01-21T10:18:32.688Z,24.00
2019-01-21T10:19:32.641Z,25.10
2019-01-21T10:20:32.632Z,25.80
2019-01-21T10:21:32.632Z,24.20
2019-01-21T10:22:32.606Z,26.20
2019-01-21T10:23:32.633Z,24.60
2019-01-21T10:24:32.593Z,25.50
2019-01-21T10:25:32.576Z,26.20
2019-01-21T10:26:32.570Z,25.80
2019-01-21T10:27:32.553Z,26.50
2019-01-21T10:28:32.582Z,25.90
2019-01-21T10:29:32.563Z,25.90
2019-01-21T10:30:32.525Z,26.20
2019-01-21T10:31:32.517Z,25.80
2019-01-21T10:32:32.501Z,25.10
2019-01-21T10:33:32.547Z,25.10
2019-01-21T10:34:32.497Z,24.30
2019-01-21T10:35:32.468Z,25.60
2019-01-21T10:36:32.459Z,25.10
2019-01-21T10:37:32.445Z,25.10
2019-01-21T10:38:32.459Z,26.80
2019-01-21T10:39:32.429Z,25.20
2019-01-21T10:40:32.411Z,25.40
2019-01-21T10:41:32.432Z,25.30
2019-01-21T10:42:32.392Z,25.50
2019-01-21T10:43:32.378Z,26.20
2019-01-21T10:44:32.392Z,24.50
2019-01-21T10:45:32.359Z,24.30
2019-01-21T10:46:32.348Z,25.90
2019-01-21T10:47:32.345Z,25.70
2019-01-21T10:48:32.361Z,26.30
2019-01-21T10:49:32.355Z,24.80
2019-01-21T10:50:32.299Z,23.60
2019-01-21T10:51:32.288Z,24.60
2019-01-21T10:52:32.284Z,25.40
2019-01-21T10:53:32.300Z,25.90
2019-01-21T10:54:32.265Z,24.70
2019-01-21T10:55:32.257Z,22.70
2019-01-21T10:56:32.236Z,23.70
2019-01-21T10:57:32.237Z,24.80
2019-01-21T10:58:32.291Z,24.90
2019-01-21T10:59:32.207Z,24.90
2019-01-21T11:00:32.200Z,25.20
2019-01-21T11:01:32.180Z,25.80
2019-01-21T11:02:32.176Z,25.30
2019-01-21T11:03:32.181Z,25.40
2019-01-21T11:04:32.150Z,25.30
2019-01-21T11:05:32.163Z,25.20
2019-01-21T11:06:32.132Z,24.60
2019-01-21T11:07:32.125Z,24.40
2019-01-21T11:08:32.104Z,24.30
2019-01-21T11:09:32.095Z,24.60
2019-01-21T11:10:32.124Z,23.70
2019-01-21T11:11:32.095Z,23.40
2019-01-21T11:12:32.093Z,24.50
2019-01-21T11:13:32.051Z,25.10
2019-01-21T11:14:32.036Z,24.80
2019-01-21T11:15:32.064Z,24.10
2019-01-21T11:16:32.015Z,23.80
2019-01-21T11:17:32.003Z,25.40
2019-01-21T11:18:32.003Z,25.70
2019-01-21T11:19:31.992Z,24.30
2019-01-21T11:20:31.991Z,25.80
2019-01-21T11:21:31.985Z,24.50
2019-01-21T11:22:31.992Z,25.80
2019-01-21T11:23:31.940Z,24.90
2019-01-21T11:24:31.926Z,22.70
2019-01-21T11:25:31.918Z,24.50
2019-01-21T11:26:31.910Z,24.50
2019-01-21T11:27:31.927Z,23.20
2019-01-21T11:28:31.880Z,24.10
2019-01-21T11:29:31.875Z,23.70
2019-01-21T11:30:31.861Z,24.00
2019-01-21T11:31:31.852Z,23.10
2019-01-21T11:32:31.872Z,24.20
2019-01-21T11:33:31.851Z,24.20
2019-01-21T11:34:32.781Z,25.50
2019-01-21T11:35:31.806Z,23.00
2019-01-21T11:36:31.795Z,24.50
2019-01-21T11:37:31.811Z,24.10
2019-01-21T11:38:31.808Z,24.40
2019-01-21T11:39:31.761Z,23.30
2019-01-21T11:40:31.750Z,24.00
2019-01-21T11:41:31.764Z,24.80
2019-01-21T11:42:31.736Z,23.70
2019-01-21T11:43:31.749Z,24.30
2019-01-21T11:44:31.720Z,24.10
2019-01-21T11:45:31.700Z,23.70
2019-01-21T11:46:31.686Z,23.20
2019-01-21T11:47:31.680Z,23.60
2019-01-21T11:48:31.733Z,23.40
2019-01-21T11:49:31.656Z,24.00
2019-01-21T11:50:31.645Z,24.80
2019-01-21T11:51:31.628Z,25.50
2019-01-21T11:52:31.621Z,25.80
2019-01-21T11:53:31.768Z,24.70
2019-01-21T11:54:31.594Z,25.00
2019-01-21T11:55:31.586Z,25.10
2019-01-21T11:56:31.583Z,25.10
2019-01-21T11:57:31.591Z,24.50
2019-01-21T11:58:31.575Z,24.70
2019-01-21T11:59:31.543Z,24.90
2019-01-21T12:00:31.552Z,23.80
2019-01-21T12:01:32.117Z,25.10
2019-01-21T12:02:31.533Z,23.00
2019-01-21T12:03:31.504Z,23.20
2019-01-21T12:04:31.497Z,22.60
2019-01-21T12:05:31.476Z,24.30
2019-01-21T12:06:31.493Z,23.90
2019-01-21T12:07:31.457Z,26.00
2019-01-21T12:08:31.449Z,25.50
2019-01-21T12:09:31.435Z,23.80
2019-01-21T12:10:31.417Z,23.10
2019-01-21T12:11:31.469Z,22.30
2019-01-21T12:12:31.397Z,23.70
2019-01-21T12:13:31.431Z,23.50
2019-01-21T12:14:31.376Z,24.40
2019-01-21T12:15:31.369Z,24.20
2019-01-21T12:16:31.352Z,24.60
2019-01-21T12:17:31.343Z,23.00
2019-01-21T12:18:31.355Z,22.60
2019-01-21T12:19:31.327Z,22.60
2019-01-21T12:20:31.335Z,23.80
2019-01-21T12:21:31.325Z,24.10
2019-01-21T12:22:31.292Z,23.70
2019-01-21T12:23:31.277Z,22.70
2019-01-21T12:24:31.278Z,22.70
2019-01-21T12:25:31.259Z,23.80
2019-01-21T12:26:31.269Z,24.50
2019-01-21T12:27:31.245Z,24.30
2019-01-21T12:28:31.221Z,24.60
2019-01-21T12:29:31.239Z,24.30
2019-01-21T12:30:31.196Z,25.00
2019-01-21T12:31:31.189Z,24.80
2019-01-21T12:32:31.194Z,24.10
2019-01-21T12:33:31.165Z,24.50
2019-01-21T12:34:31.198Z,23.30
2019-01-21T12:35:31.146Z,21.80
2019-01-21T12:36:31.136Z,22.80
2019-01-21T12:37:31.128Z,23.10
2019-01-21T12:38:31.112Z,24.20
2019-01-21T12:39:31.132Z,23.80
2019-01-21T12:40:31.109Z,22.00
2019-01-21T12:41:31.080Z,22.90
2019-01-21T12:42:31.065Z,23.40
2019-01-21T12:43:31.053Z,22.60
2019-01-21T12:44:31.093Z,23.50
2019-01-21T12:45:31.037Z,22.60
2019-01-21T12:46:31.020Z,22.80
2019-01-21T12:47:31.012Z,23.50
2019-01-21T12:48:31.005Z,22.70
2019-01-21T12:49:31.011Z,22.40
2019-01-21T12:50:30.986Z,24.10
2019-01-21T12:51:30.976Z,23.60
2019-01-21T12:52:30.985Z,22.70
2019-01-21T12:53:30.950Z,22.70
2019-01-21T12:54:30.960Z,23.10
2019-01-21T12:55:30.930Z,23.90